| time (UTC) | temp C | wind direction | speed KPH | gust KPH | rain 1hr cm | rain 24hr cm | rain mn cm | humidity % | barometer mb |
| 20260905184611 | 26 | 321 | 8.0 | 19.3 | 0.00 | 0.00 | 0.00 | 58 | 1009.0 |
| 20260905184042 | 26 | 294 | 9.7 | 19.3 | 0.00 | 0.00 | 0.00 | 60 | 1009.1 |
| 20260905183544 | 26 | 90 | 4.8 | 17.7 | 0.00 | 0.00 | 0.00 | 60 | 1009.1 |
| 20260905183055 | 25 | 316 | 9.7 | 17.7 | 0.00 | 0.00 | 0.00 | 61 | 1009.0 |
| 20260905182546 | 25 | 30 | 6.4 | 16.1 | 0.00 | 0.00 | 0.00 | 60 | 1009.2 |
| 20260905182043 | 25 | 315 | 4.8 | 16.1 | 0.00 | 0.00 | 0.00 | 61 | 1009.2 |
| 20260905181550 | 25 | 33 | 6.4 | 22.5 | 0.00 | 0.00 | 0.00 | 61 | 1009.3 |
| 20260905181042 | 25 | 42 | 6.4 | 22.5 | 0.00 | 0.00 | 0.00 | 62 | 1009.3 |
| 20260905180542 | 25 | 360 | 3.2 | 16.1 | 0.00 | 0.00 | 0.00 | 62 | 1009.3 |
| 20260905180100 | 25 | 51 | 9.7 | 16.1 | 0.00 | 0.00 | 0.00 | 62 | 1009.1 |
| 20260905175541 | 25 | 15 | 9.7 | 16.1 | 0.00 | 0.00 | 0.00 | 62 | 1009.2 |
| 20260905175045 | 25 | 355 | 4.8 | 19.3 | 0.00 | 0.00 | 0.00 | 62 | 1009.5 |
| 20260905174558 | 25 | 344 | 9.7 | 20.9 | 0.00 | 0.00 | 0.00 | 61 | 1009.4 |
| 20260905174041 | 25 | 0 | 8.0 | 20.9 | 0.00 | 0.00 | 0.00 | 62 | 1009.4 |
| 20260905173544 | 25 | 21 | 3.2 | 16.1 | 0.00 | 0.00 | 0.00 | 63 | 1009.3 |
| 20260905173110 | 24 | 301 | 6.4 | 19.3 | 0.00 | 0.00 | 0.00 | 63 | 1009.5 |
| 20260905172545 | 24 | 0 | 8.0 | 25.7 | 0.00 | 0.00 | 0.00 | 65 | 1009.4 |
| 20260905172041 | 24 | 322 | 11.3 | 25.7 | 0.00 | 0.00 | 0.00 | 65 | 1009.6 |
| 20260905171558 | 24 | 18 | 3.2 | 16.1 | 0.00 | 0.00 | 0.00 | 63 | 1009.5 |
| 20260905171042 | 25 | 343 | 9.7 | 17.7 | 0.00 | 0.00 | 0.00 | 61 | 1009.6 |
| 20260905170542 | 25 | 360 | 3.2 | 17.7 | 0.00 | 0.00 | 0.00 | 64 | 1009.6 |
| 20260905170056 | 25 | 22 | 1.6 | 14.5 | 0.00 | 0.00 | 0.00 | 66 | 1009.6 |
| 20260905165545 | 24 | 272 | 6.4 | 19.3 | 0.00 | 0.00 | 0.00 | 66 | 1009.7 |
| 20260905165044 | 23 | 289 | 9.7 | 19.3 | 0.00 | 0.00 | 0.00 | 67 | 1009.7 |
| 20260905164600 | 23 | 360 | 9.7 | 19.3 | 0.00 | 0.00 | 0.00 | 68 | 1009.6 |
| 20260905164042 | 23 | 304 | 8.0 | 19.3 | 0.00 | 0.00 | 0.00 | 66 | 1009.6 |
| 20260905163541 | 24 | 22 | 9.7 | 17.7 | 0.00 | 0.00 | 0.00 | 66 | 1009.7 |
| 20260905163105 | 24 | 258 | 4.8 | 17.7 | 0.00 | 0.00 | 0.00 | 64 | 1009.5 |
| 20260905162544 | 23 | 44 | 8.0 | 17.7 | 0.00 | 0.00 | 0.00 | 67 | 1009.6 |
| 20260905162041 | 23 | 340 | 6.4 | 19.3 | 0.00 | 0.00 | 0.00 | 68 | 1009.7 |
| 20260905161555 | 23 | 10 | 6.4 | 19.3 | 0.00 | 0.00 | 0.00 | 67 | 1009.7 |
| 20260905161045 | 23 | 360 | 6.4 | 20.9 | 0.00 | 0.00 | 0.00 | 67 | 1009.8 |
| 20260905160545 | 24 | 299 | 8.0 | 20.9 | 0.00 | 0.00 | 0.00 | 67 | 1009.8 |
| 20260905160059 | 24 | 21 | 9.7 | 25.7 | 0.00 | 0.00 | 0.00 | 66 | 1009.7 |
| 20260905155544 | 23 | 14 | 6.4 | 27.4 | 0.00 | 0.00 | 0.00 | 68 | 1009.8 |
| 20260905155041 | 23 | 22 | 14.5 | 27.4 | 0.00 | 0.00 | 0.00 | 66 | 1009.7 |
| 20260905154557 | 23 | 29 | 12.9 | 24.1 | 0.00 | 0.00 | 0.00 | 67 | 1009.8 |
| 20260905154042 | 23 | 9 | 8.0 | 19.3 | 0.00 | 0.00 | 0.00 | 68 | 1009.7 |
| 20260905153540 | 23 | 40 | 8.0 | 20.9 | 0.00 | 0.00 | 0.00 | 69 | 1010.0 |
| 20260905153055 | 23 | 36 | 12.9 | 27.4 | 0.00 | 0.00 | 0.00 | 67 | 1009.9 |
| 20260905152545 | 23 | 32 | 14.5 | 27.4 | 0.00 | 0.00 | 0.00 | 68 | 1010.0 |
| 20260905152042 | 23 | 351 | 9.7 | 25.7 | 0.00 | 0.00 | 0.00 | 69 | 1010.0 |
| 20260905151551 | 23 | 74 | 14.5 | 25.7 | 0.00 | 0.00 | 0.00 | 69 | 1009.8 |
| 20260905151047 | 23 | 40 | 8.0 | 17.7 | 0.00 | 0.00 | 0.00 | 70 | 1010.0 |
| 20260905150541 | 23 | 26 | 4.8 | 20.9 | 0.00 | 0.00 | 0.00 | 72 | 1009.9 |
| 20260905145544 | 23 | 66 | 12.9 | 22.5 | 0.00 | 0.00 | 0.00 | 70 | 1009.9 |
| 20260905145041 | 23 | 346 | 9.7 | 19.3 | 0.00 | 0.00 | 0.00 | 71 | 1010.0 |
| 20260905144559 | 22 | 37 | 8.0 | 19.3 | 0.00 | 0.00 | 0.00 | 71 | 1009.9 |
| 20260905144042 | 23 | 318 | 6.4 | 19.3 | 0.00 | 0.00 | 0.00 | 70 | 1010.0 |
| 20260905143548 | 23 | 17 | 9.7 | 20.9 | 0.00 | 0.00 | 0.00 | 72 | 1009.9 |
| 20260905143108 | 23 | 318 | 6.4 | 20.9 | 0.00 | 0.00 | 0.00 | 71 | 1009.7 |
| 20260905142546 | 23 | 341 | 12.9 | 20.9 | 0.00 | 0.00 | 0.00 | 70 | 1009.7 |
| 20260905142046 | 23 | 309 | 4.8 | 14.5 | 0.00 | 0.00 | 0.00 | 72 | 1009.8 |
| 20260905141615 | 23 | 38 | 6.4 | 17.7 | 0.00 | 0.00 | 0.00 | 72 | 1009.8 |
| 20260905141044 | 22 | 22 | 3.2 | 19.3 | 0.00 | 0.00 | 0.00 | 73 | 1009.7 |
| 20260905140546 | 22 | 29 | 8.0 | 20.9 | 0.00 | 0.00 | 0.00 | 73 | 1009.8 |
| 20260905140109 | 22 | 44 | 8.0 | 22.5 | 0.00 | 0.00 | 0.00 | 73 | 1009.7 |
| 20260905135540 | 22 | 19 | 12.9 | 22.5 | 0.00 | 0.00 | 0.00 | 73 | 1009.7 |
| 20260905135042 | 22 | 48 | 8.0 | 22.5 | 0.00 | 0.00 | 0.00 | 73 | 1009.9 |
| 20260905134612 | 22 | 11 | 3.2 | 22.5 | 0.00 | 0.00 | 0.00 | 75 | 1009.8 |
| 20260905134042 | 22 | 33 | 9.7 | 22.5 | 0.00 | 0.00 | 0.00 | 75 | 1009.8 |
| 20260905133544 | 21 | 12 | 11.3 | 20.9 | 0.00 | 0.00 | 0.00 | 75 | 1009.9 |
| 20260905133102 | 21 | 36 | 6.4 | 16.1 | 0.00 | 0.00 | 0.00 | 76 | 1010.0 |
| 20260905132544 | 21 | 29 | 6.4 | 16.1 | 0.00 | 0.00 | 0.00 | 76 | 1010.0 |
| 20260905132042 | 21 | 60 | 4.8 | 16.1 | 0.00 | 0.00 | 0.00 | 75 | 1010.1 |
| 20260905131608 | 21 | 32 | 4.8 | 17.7 | 0.00 | 0.00 | 0.00 | 76 | 1010.0 |
| 20260905131045 | 21 | 352 | 9.7 | 19.3 | 0.00 | 0.00 | 0.00 | 75 | 1010.2 |
| 20260905130541 | 21 | 34 | 6.4 | 19.3 | 0.00 | 0.00 | 0.00 | 76 | 1010.2 |
| 20260905130104 | 21 | 17 | 8.0 | 19.3 | 0.00 | 0.00 | 0.00 | 75 | 1010.1 |
| 20260905125544 | 21 | 26 | 4.8 | 17.7 | 0.00 | 0.00 | 0.00 | 76 | 1010.1 |
| 20260905125044 | 21 | 40 | 6.4 | 17.7 | 0.00 | 0.00 | 0.00 | 77 | 1010.3 |
| 20260905124558 | 21 | 351 | 9.7 | 16.1 | 0.00 | 0.00 | 0.00 | 77 | 1010.2 |
| 20260905124044 | 21 | 13 | 4.8 | 14.5 | 0.00 | 0.00 | 0.00 | 78 | 1010.3 |
| 20260905123544 | 21 | 360 | 4.8 | 12.9 | 0.00 | 0.00 | 0.00 | 78 | 1010.3 |
| 20260905123102 | 21 | 347 | 3.2 | 9.7 | 0.00 | 0.00 | 0.00 | 78 | 1010.3 |
| 20260905122541 | 20 | 26 | 3.2 | 12.9 | 0.00 | 0.00 | 0.00 | 79 | 1010.3 |
| 20260905122041 | 20 | 360 | 4.8 | 14.5 | 0.00 | 0.00 | 0.00 | 80 | 1010.4 |
| 20260905121556 | 20 | 360 | 4.8 | 14.5 | 0.00 | 0.00 | 0.00 | 80 | 1010.3 |
| 20260905121041 | 20 | 17 | 4.8 | 14.5 | 0.00 | 0.00 | 0.00 | 81 | 1010.3 |
| 20260905120545 | 20 | 44 | 3.2 | 14.5 | 0.00 | 0.00 | 0.00 | 81 | 1010.2 |
| 20260905120058 | 19 | 17 | 4.8 | 14.5 | 0.00 | 0.00 | 0.00 | 81 | 1010.3 |
| 20260905115548 | 20 | 346 | 6.4 | 16.1 | 0.00 | 0.00 | 0.00 | 80 | 1010.3 |
| 20260905115047 | 20 | 60 | 3.2 | 16.1 | 0.00 | 0.00 | 0.00 | 81 | 1010.2 |
| 20260905114628 | 20 | 43 | 6.4 | 16.1 | 0.00 | 0.00 | 0.00 | 81 | 1010.1 |
| 20260905114041 | 20 | 17 | 4.8 | 19.3 | 0.00 | 0.00 | 0.00 | 81 | 1009.9 |
| 20260905113541 | 19 | 330 | 6.4 | 19.3 | 0.00 | 0.00 | 0.00 | 81 | 1009.9 |
| 20260905113057 | 19 | 307 | 9.7 | 16.1 | 0.00 | 0.00 | 0.00 | 81 | 1009.7 |
| 20260905112541 | 19 | 349 | 4.8 | 17.7 | 0.00 | 0.00 | 0.00 | 82 | 1009.7 |
| 20260905112040 | 19 | 329 | 6.4 | 17.7 | 0.00 | 0.00 | 0.00 | 82 | 1009.6 |
| 20260905111554 | 18 | 328 | 4.8 | 14.5 | 0.00 | 0.00 | 0.00 | 82 | 1009.6 |
| 20260905111043 | 18 | 338 | 6.4 | 14.5 | 0.00 | 0.00 | 0.00 | 82 | 1009.6 |
| 20260905110542 | 18 | 335 | 4.8 | 12.9 | 0.00 | 0.00 | 0.00 | 83 | 1009.4 |
| 20260905110052 | 18 | 360 | 4.8 | 9.7 | 0.00 | 0.00 | 0.00 | 83 | 1009.4 |
| 20260905105541 | 18 | 0 | 1.6 | 6.4 | 0.00 | 0.03 | 0.00 | 84 | 1009.5 |
| 20260905105041 | 18 | 317 | 1.6 | 8.0 | 0.00 | 0.03 | 0.00 | 84 | 1009.3 |
| 20260905104558 | 18 | 360 | 3.2 | 8.0 | 0.00 | 0.03 | 0.00 | 84 | 1009.4 |
| 20260905104042 | 18 | 5 | 3.2 | 8.0 | 0.00 | 0.03 | 0.00 | 84 | 1009.4 |
| 20260905103542 | 18 | 30 | 3.2 | 8.0 | 0.00 | 0.03 | 0.00 | 84 | 1009.4 |
| 20260905103056 | 18 | 10 | 3.2 | 8.0 | 0.00 | 0.03 | 0.00 | 84 | 1009.5 |
| 20260905102541 | 18 | 15 | 3.2 | 8.0 | 0.00 | 0.03 | 0.00 | 84 | 1009.3 |
| 20260905102041 | 18 | 32 | 3.2 | 8.0 | 0.00 | 0.03 | 0.00 | 84 | 1009.2 |
| 20260905101553 | 18 | 10 | 4.8 | 9.7 | 0.00 | 0.03 | 0.00 | 84 | 1009.3 |
| 20260905101040 | 18 | 333 | 3.2 | 9.7 | 0.00 | 0.03 | 0.00 | 83 | 1009.1 |
| 20260905100541 | 18 | 334 | 3.2 | 8.0 | 0.00 | 0.03 | 0.00 | 83 | 1009.1 |
| 20260905100111 | 18 | 360 | 1.6 | 11.3 | 0.00 | 0.03 | 0.00 | 83 | 1009.2 |
| 20260905095541 | 18 | 315 | 4.8 | 12.9 | 0.00 | 1.19 | 0.00 | 83 | 1009.1 |
| 20260905095043 | 18 | 9 | 3.2 | 12.9 | 0.00 | 1.19 | 0.00 | 83 | 1009.2 |
| 20260905094603 | 18 | 337 | 4.8 | 12.9 | 0.00 | 1.19 | 0.00 | 83 | 1009.0 |
| 20260905094040 | 18 | 320 | 4.8 | 12.9 | 0.00 | 1.19 | 0.00 | 82 | 1009.1 |
| 20260905093541 | 18 | 22 | 4.8 | 14.5 | 0.00 | 1.19 | 0.00 | 82 | 1009.0 |
| 20260905093057 | 18 | 360 | 6.4 | 14.5 | 0.00 | 1.19 | 0.00 | 82 | 1009.0 |
| 20260905092541 | 18 | 15 | 6.4 | 12.9 | 0.00 | 1.19 | 0.00 | 82 | 1009.0 |
| 20260905092041 | 18 | 16 | 6.4 | 11.3 | 0.00 | 1.19 | 0.00 | 82 | 1009.0 |
| 20260905091600 | 18 | 344 | 4.8 | 11.3 | 0.00 | 1.19 | 0.00 | 81 | 1009.0 |
| 20260905091043 | 19 | 338 | 4.8 | 11.3 | 0.00 | 1.19 | 0.00 | 81 | 1009.0 |
| 20260905090541 | 19 | 21 | 4.8 | 11.3 | 0.00 | 1.19 | 0.00 | 81 | 1008.8 |
| 20260905090057 | 19 | 13 | 4.8 | 12.9 | 0.00 | 1.19 | 0.00 | 80 | 1008.9 |
| 20260905085542 | 19 | 345 | 6.4 | 12.9 | 0.00 | 2.36 | 0.00 | 80 | 1008.9 |
| 20260905085040 | 19 | 360 | 4.8 | 16.1 | 0.00 | 2.36 | 0.00 | 80 | 1009.0 |
| 20260905084554 | 20 | 25 | 6.4 | 16.1 | 0.00 | 2.36 | 0.00 | 79 | 1008.9 |
| 20260905084041 | 20 | 30 | 6.4 | 19.3 | 0.00 | 2.36 | 0.00 | 79 | 1008.9 |
| 20260905083544 | 20 | 9 | 8.0 | 19.3 | 0.00 | 2.36 | 0.00 | 78 | 1009.0 |
| 20260905083051 | 20 | 15 | 3.2 | 19.3 | 0.00 | 2.36 | 0.00 | 78 | 1008.9 |
| 20260905082541 | 20 | 360 | 6.4 | 25.7 | 0.00 | 2.36 | 0.00 | 78 | 1008.8 |
| 20260905082041 | 20 | 92 | 9.7 | 25.7 | 0.00 | 2.36 | 0.00 | 77 | 1008.9 |
| 20260905081550 | 20 | 348 | 8.0 | 20.9 | 0.00 | 2.36 | 0.00 | 77 | 1008.9 |
| 20260905081043 | 20 | 342 | 6.4 | 20.9 | 0.00 | 2.36 | 0.00 | 77 | 1008.9 |
| 20260905080541 | 20 | 40 | 9.7 | 20.9 | 0.00 | 2.36 | 0.00 | 77 | 1009.0 |
| 20260905080048 | 20 | 9 | 6.4 | 19.3 | 0.00 | 2.36 | 0.00 | 76 | 1009.0 |
| 20260905075540 | 20 | 311 | 9.7 | 19.3 | 0.00 | 2.95 | 0.00 | 76 | 1008.9 |
| 20260905075042 | 20 | 333 | 6.4 | 19.3 | 0.00 | 2.95 | 0.00 | 76 | 1008.9 |
| 20260905074600 | 20 | 305 | 6.4 | 20.9 | 0.00 | 2.95 | 0.00 | 75 | 1008.8 |
| 20260905074042 | 20 | 5 | 4.8 | 20.9 | 0.00 | 2.95 | 0.00 | 75 | 1008.7 |
| 20260905073541 | 20 | 19 | 6.4 | 20.9 | 0.00 | 2.95 | 0.00 | 75 | 1008.7 |
| 20260905073105 | 20 | 42 | 8.0 | 17.7 | 0.00 | 2.95 | 0.00 | 75 | 1008.7 |
| 20260905072542 | 21 | 26 | 9.7 | 19.3 | 0.00 | 2.95 | 0.00 | 75 | 1008.9 |
| 20260905072041 | 20 | 360 | 4.8 | 22.5 | 0.00 | 2.95 | 0.00 | 75 | 1008.9 |
| 20260905071551 | 21 | 253 | 9.7 | 22.5 | 0.00 | 2.95 | 0.00 | 75 | 1008.9 |
| 20260905071044 | 21 | 339 | 8.0 | 20.9 | 0.00 | 2.95 | 0.00 | 75 | 1008.9 |
| 20260905070543 | 21 | 283 | 8.0 | 17.7 | 0.00 | 2.95 | 0.00 | 75 | 1008.9 |
| 20260905065546 | 21 | 11 | 6.4 | 20.9 | 0.00 | 2.95 | 0.00 | 75 | 1009.0 |
| 20260905065048 | 21 | 350 | 4.8 | 20.9 | 0.00 | 2.95 | 0.00 | 75 | 1009.1 |
| 20260905064610 | 21 | 281 | 8.0 | 16.1 | 0.00 | 2.95 | 0.00 | 74 | 1009.1 |
| 20260905064041 | 21 | 352 | 8.0 | 16.1 | 0.00 | 2.95 | 0.00 | 74 | 1009.1 |
| 20260905063547 | 21 | 12 | 6.4 | 20.9 | 0.00 | 2.95 | 0.00 | 74 | 1009.0 |
| 20260905063056 | 21 | 23 | 4.8 | 20.9 | 0.00 | 2.95 | 0.00 | 74 | 1009.1 |
| 20260905062541 | 21 | 343 | 6.4 | 19.3 | 0.00 | 2.95 | 0.00 | 74 | 1009.1 |
| 20260905062040 | 21 | 321 | 6.4 | 30.6 | 0.00 | 2.95 | 0.00 | 74 | 1009.2 |
| 20260905061613 | 21 | 342 | 11.3 | 30.6 | 0.00 | 2.95 | 0.00 | 73 | 1009.0 |
| 20260905061042 | 21 | 9 | 9.7 | 19.3 | 0.00 | 2.95 | 0.00 | 73 | 1009.0 |
| 20260905060541 | 21 | 340 | 6.4 | 16.1 | 0.00 | 2.95 | 0.00 | 73 | 1009.3 |
| 20260905060105 | 21 | 306 | 8.0 | 17.7 | 0.00 | 2.95 | 0.00 | 72 | 1009.4 |
| 20260905055543 | 21 | 19 | 8.0 | 17.7 | 0.00 | 2.95 | 0.00 | 72 | 1009.4 |
| 20260905055045 | 21 | 324 | 8.0 | 17.7 | 0.00 | 2.95 | 0.00 | 72 | 1009.5 |
| 20260905054603 | 21 | 22 | 9.7 | 19.3 | 0.00 | 2.95 | 0.00 | 72 | 1009.5 |
| 20260905054041 | 21 | 344 | 9.7 | 20.9 | 0.00 | 2.95 | 0.00 | 71 | 1009.5 |
| 20260905053542 | 21 | 360 | 8.0 | 20.9 | 0.00 | 2.95 | 0.00 | 71 | 1009.5 |
| 20260905053053 | 21 | 360 | 9.7 | 20.9 | 0.00 | 2.95 | 0.00 | 71 | 1009.5 |
| 20260905052542 | 21 | 347 | 8.0 | 24.1 | 0.00 | 2.95 | 0.00 | 70 | 1009.6 |
| 20260905052041 | 22 | 351 | 11.3 | 24.1 | 0.00 | 2.95 | 0.00 | 70 | 1009.6 |
| 20260905051610 | 21 | 320 | 11.3 | 22.5 | 0.00 | 2.95 | 0.00 | 71 | 1009.6 |
| 20260905051041 | 21 | 360 | 11.3 | 20.9 | 0.00 | 2.95 | 0.00 | 72 | 1009.7 |
| 20260905050541 | 21 | 344 | 6.4 | 16.1 | 0.00 | 2.95 | 0.00 | 73 | 1009.9 |
| 20260905050105 | 21 | 341 | 6.4 | 14.5 | 0.00 | 2.95 | 0.00 | 73 | 1009.9 |
| 20260905045544 | 21 | 9 | 3.2 | 12.9 | 0.00 | 2.95 | 0.00 | 74 | 1010.0 |
| 20260905045044 | 21 | 321 | 3.2 | 12.9 | 0.00 | 2.95 | 0.00 | 74 | 1010.0 |
| 20260905044600 | 21 | 9 | 1.6 | 12.9 | 0.00 | 2.95 | 0.00 | 75 | 1010.0 |
| 20260905044044 | 21 | 339 | 3.2 | 12.9 | 0.00 | 2.95 | 0.00 | 75 | 1010.1 |
| 20260905043541 | 21 | 355 | 4.8 | 12.9 | 0.00 | 2.95 | 0.00 | 76 | 1010.1 |
| 20260905043055 | 21 | 18 | 3.2 | 12.9 | 0.00 | 2.95 | 0.00 | 76 | 1010.1 |
| 20260905042544 | 21 | 342 | 4.8 | 12.9 | 0.00 | 2.95 | 0.00 | 76 | 1010.0 |
| 20260905042042 | 21 | 360 | 4.8 | 12.9 | 0.00 | 2.95 | 0.00 | 75 | 1010.0 |
| 20260905041553 | 21 | 300 | 4.8 | 14.5 | 0.00 | 2.95 | 0.00 | 75 | 1010.2 |
| 20260905041040 | 21 | 28 | 4.8 | 14.5 | 0.00 | 2.95 | 0.00 | 75 | 1010.1 |
| 20260905040541 | 21 | 352 | 4.8 | 14.5 | 0.00 | 2.95 | 0.00 | 76 | 1010.2 |
| 20260905040059 | 21 | 22 | 6.4 | 14.5 | 0.00 | 2.95 | 0.00 | 77 | 1010.1 |
| 20260905035542 | 21 | 349 | 3.2 | 12.9 | 0.00 | 2.95 | 2.95 | 77 | 1010.2 |
| 20260905035041 | 21 | 337 | 3.2 | 12.9 | 0.00 | 2.95 | 2.95 | 78 | 1010.2 |
| 20260905034607 | 21 | 350 | 3.2 | 9.7 | 0.00 | 2.95 | 2.95 | 77 | 1010.2 |
| 20260905034040 | 21 | 35 | 3.2 | 8.0 | 0.00 | 2.95 | 2.95 | 77 | 1010.1 |
| 20260905033542 | 21 | 344 | 1.6 | 9.7 | 0.00 | 2.95 | 2.95 | 77 | 1010.0 |
| 20260905033104 | 21 | 325 | 3.2 | 9.7 | 0.00 | 2.95 | 2.95 | 77 | 1010.1 |
| 20260905032543 | 21 | 342 | 4.8 | 8.0 | 0.00 | 2.95 | 2.95 | 77 | 1010.2 |
| 20260905032042 | 21 | 348 | 3.2 | 8.0 | 0.00 | 2.95 | 2.95 | 77 | 1010.2 |
| 20260905031558 | 21 | 342 | 3.2 | 8.0 | 0.00 | 2.95 | 2.95 | 77 | 1010.1 |
| 20260905031040 | 21 | 352 | 3.2 | 9.7 | 0.00 | 2.95 | 2.95 | 78 | 1010.2 |
| 20260905030542 | 21 | 11 | 4.8 | 9.7 | 0.00 | 2.95 | 2.95 | 78 | 1010.0 |
| 20260905030057 | 21 | 321 | 4.8 | 9.7 | 0.00 | 2.95 | 2.95 | 79 | 1010.1 |
| 20260905025540 | 21 | 322 | 4.8 | 8.0 | 0.00 | 2.95 | 2.95 | 79 | 1010.1 |
| 20260905025045 | 21 | 302 | 3.2 | 8.0 | 0.00 | 2.95 | 2.95 | 80 | 1010.0 |
| 20260905024553 | 21 | 326 | 3.2 | 8.0 | 0.00 | 2.95 | 2.95 | 81 | 1009.9 |
| 20260905024041 | 21 | 313 | 3.2 | 8.0 | 0.00 | 2.95 | 2.95 | 82 | 1010.0 |
| 20260905023543 | 22 | 333 | 1.6 | 6.4 | 0.00 | 2.95 | 2.95 | 82 | 1010.0 |
| 20260905023124 | 22 | 329 | 3.2 | 6.4 | 0.00 | 2.95 | 2.95 | 82 | 1010.0 |
| 20260905022542 | 22 | 306 | 1.6 | 6.4 | 0.00 | 2.95 | 2.95 | 83 | 1009.9 |
| 20260905022040 | 22 | 323 | 0.0 | 6.4 | 0.00 | 2.95 | 2.95 | 83 | 1010.0 |
| 20260905021549 | 22 | 329 | 0.0 | 4.8 | 0.00 | 2.95 | 2.95 | 82 | 1010.1 |
| 20260905021041 | 22 | 305 | 0.0 | 4.8 | 0.00 | 2.95 | 2.95 | 83 | 1010.0 |
| 20260905020543 | 22 | 310 | 0.0 | 4.8 | 0.00 | 2.95 | 2.95 | 82 | 1010.1 |
| 20260905020100 | 22 | 0 | 3.2 | 4.8 | 0.00 | 2.95 | 2.95 | 82 | 1010.1 |
| 20260905015541 | 22 | 309 | 3.2 | 4.8 | 0.00 | 2.95 | 2.95 | 81 | 1010.1 |
| 20260905015042 | 22 | 294 | 1.6 | 4.8 | 0.00 | 2.95 | 2.95 | 81 | 1010.0 |
| 20260905014555 | 23 | 287 | 1.6 | 4.8 | 0.00 | 2.95 | 2.95 | 80 | 1010.0 |
| 20260905014042 | 23 | 308 | 1.6 | 4.8 | 0.00 | 2.95 | 2.95 | 80 | 1009.8 |
| 20260905013545 | 23 | 308 | 1.6 | 4.8 | 0.00 | 2.95 | 2.95 | 80 | 1009.9 |
| 20260905013058 | 23 | 315 | 1.6 | 4.8 | 0.00 | 2.95 | 2.95 | 79 | 1009.9 |
| 20260905012543 | 23 | 333 | 1.6 | 4.8 | 0.00 | 2.95 | 2.95 | 79 | 1010.0 |
| 20260905012043 | 23 | 323 | 0.0 | 3.2 | 0.00 | 2.95 | 2.95 | 79 | 1010.0 |
| 20260905011600 | 23 | 0 | 0.0 | 3.2 | 0.00 | 2.95 | 2.95 | 79 | 1009.9 |
| 20260905011043 | 23 | 317 | 0.0 | 3.2 | 0.00 | 2.95 | 2.95 | 78 | 1010.0 |
| 20260905010544 | 23 | 308 | 0.0 | 4.8 | 0.00 | 2.95 | 2.95 | 78 | 1010.2 |
| 20260905010055 | 24 | 308 | 1.6 | 4.8 | 0.00 | 2.95 | 2.95 | 77 | 1010.1 |
| 20260905005545 | 24 | 320 | 3.2 | 4.8 | 0.00 | 2.95 | 2.95 | 77 | 1010.1 |
| 20260905005042 | 24 | 315 | 1.6 | 3.2 | 0.00 | 2.95 | 2.95 | 76 | 1010.1 |
| 20260905004553 | 24 | 0 | 0.0 | 1.6 | 0.00 | 2.95 | 2.95 | 76 | 1010.1 |
| 20260905004042 | 24 | 331 | 0.0 | 1.6 | 0.00 | 2.95 | 2.95 | 75 | 1010.1 |
| 20260905003544 | 24 | 0 | 0.0 | 1.6 | 0.00 | 2.95 | 2.95 | 74 | 1010.0 |
| 20260905003100 | 24 | 0 | 0.0 | 1.6 | 0.00 | 2.95 | 2.95 | 74 | 1010.0 |
| 20260905002541 | 24 | 0 | 0.0 | 1.6 | 0.00 | 2.95 | 2.95 | 73 | 1009.9 |
| 20260905002045 | 25 | 0 | 0.0 | 1.6 | 0.00 | 2.95 | 2.95 | 72 | 1009.9 |
| 20260905001601 | 25 | 0 | 0.0 | 1.6 | 0.00 | 2.95 | 2.95 | 71 | 1009.8 |
| 20260905001044 | 25 | 0 | 0.0 | 3.2 | 0.00 | 2.95 | 2.95 | 70 | 1009.8 |
| 20260905000545 | 25 | 0 | 0.0 | 3.2 | 0.00 | 2.95 | 2.95 | 70 | 1009.8 |
| 20260905000113 | 25 | 0 | 1.6 | 3.2 | 0.00 | 2.95 | 2.95 | 70 | 1009.8 |
| 20260904235543 | 25 | 319 | 1.6 | 3.2 | 0.00 | 2.95 | 2.95 | 69 | 1009.8 |
| 20260904235042 | 25 | 322 | 1.6 | 3.2 | 0.00 | 2.95 | 2.95 | 69 | 1009.8 |
| 20260904234555 | 25 | 0 | 0.0 | 4.8 | 0.00 | 2.95 | 2.95 | 68 | 1009.7 |
| 20260904234042 | 25 | 0 | 1.6 | 4.8 | 0.00 | 2.95 | 2.95 | 67 | 1009.7 |
| 20260904233543 | 25 | 11 | 1.6 | 4.8 | 0.00 | 2.95 | 2.95 | 67 | 1009.6 |
| 20260904233051 | 25 | 5 | 3.2 | 6.4 | 0.00 | 2.95 | 2.95 | 67 | 1009.6 |
| 20260904232542 | 26 | 15 | 3.2 | 6.4 | 0.00 | 2.95 | 2.95 | 66 | 1009.7 |
| 20260904232042 | 26 | 28 | 1.6 | 6.4 | 0.00 | 2.95 | 2.95 | 66 | 1009.5 |
| 20260904231602 | 26 | 21 | 3.2 | 9.7 | 0.00 | 2.95 | 2.95 | 66 | 1009.6 |
| 20260904231042 | 26 | 13 | 4.8 | 12.9 | 0.00 | 2.95 | 2.95 | 65 | 1009.6 |
| 20260904230545 | 26 | 29 | 6.4 | 12.9 | 0.00 | 2.95 | 2.95 | 64 | 1009.6 |
| 20260904230058 | 27 | 61 | 3.2 | 8.0 | 0.00 | 2.95 | 2.95 | 63 | 1009.6 |
| 20260904225542 | 27 | 340 | 3.2 | 9.7 | 0.00 | 2.95 | 2.95 | 61 | 1009.6 |
| 20260904225042 | 27 | 352 | 3.2 | 9.7 | 0.00 | 2.95 | 2.95 | 61 | 1009.6 |
| 20260904224602 | 27 | 22 | 0.0 | 9.7 | 0.00 | 2.95 | 2.95 | 60 | 1009.4 |
| 20260904224043 | 27 | 331 | 1.6 | 9.7 | 0.00 | 2.95 | 2.95 | 60 | 1009.5 |
| 20260904223545 | 27 | 338 | 1.6 | 8.0 | 0.00 | 2.95 | 2.95 | 60 | 1009.5 |
| 20260904223102 | 28 | 13 | 1.6 | 8.0 | 0.00 | 2.95 | 2.95 | 59 | 1009.6 |
| 20260904222544 | 28 | 292 | 1.6 | 8.0 | 0.00 | 2.95 | 2.95 | 60 | 1009.6 |
| 20260904222041 | 28 | 329 | 1.6 | 9.7 | 0.00 | 2.95 | 2.95 | 58 | 1009.6 |
| 20260904221604 | 27 | 298 | 1.6 | 9.7 | 0.00 | 2.95 | 2.95 | 59 | 1009.4 |
| 20260904221042 | 28 | 315 | 3.2 | 8.0 | 0.00 | 2.95 | 2.95 | 58 | 1009.4 |
| 20260904220543 | 27 | 281 | 3.2 | 8.0 | 0.00 | 2.95 | 2.95 | 59 | 1009.5 |
| 20260904220118 | 27 | 294 | 3.2 | 12.9 | 0.00 | 2.95 | 2.95 | 59 | 1009.5 |
| 20260904215542 | 27 | 292 | 3.2 | 12.9 | 0.00 | 2.95 | 2.95 | 60 | 1009.5 |
| 20260904215045 | 27 | 292 | 3.2 | 12.9 | 0.00 | 2.95 | 2.95 | 60 | 1009.4 |
| 20260904214556 | 27 | 331 | 4.8 | 16.1 | 0.00 | 2.95 | 2.95 | 60 | 1009.3 |
| 20260904214040 | 27 | 273 | 6.4 | 16.1 | 0.00 | 2.95 | 2.95 | 59 | 1009.5 |
| 20260904213543 | 27 | 285 | 8.0 | 19.3 | 0.00 | 2.95 | 2.95 | 58 | 1009.3 |
| 20260904213101 | 27 | 288 | 8.0 | 19.3 | 0.00 | 2.95 | 2.95 | 58 | 1009.5 |
| 20260904212542 | 27 | 252 | 11.3 | 19.3 | 0.00 | 2.95 | 2.95 | 58 | 1009.4 |
| 20260904212044 | 27 | 276 | 8.0 | 20.9 | 0.00 | 2.95 | 2.95 | 58 | 1009.3 |
| 20260904211559 | 28 | 266 | 6.4 | 22.5 | 0.00 | 2.95 | 2.95 | 57 | 1009.3 |
| 20260904211041 | 28 | 260 | 9.7 | 22.5 | 0.00 | 2.95 | 2.95 | 57 | 1009.4 |
| 20260904210541 | 28 | 352 | 6.4 | 17.7 | 0.00 | 2.95 | 2.95 | 57 | 1009.5 |
| 20260904205541 | 28 | 336 | 6.4 | 16.1 | 0.00 | 2.95 | 2.95 | 57 | 1009.5 |
| 20260904205041 | 28 | 309 | 4.8 | 16.1 | 0.00 | 2.95 | 2.95 | 58 | 1009.6 |
| 20260904204600 | 28 | 311 | 8.0 | 16.1 | 0.00 | 2.95 | 2.95 | 57 | 1009.7 |
| 20260904204045 | 28 | 334 | 4.8 | 16.1 | 0.00 | 2.95 | 2.95 | 58 | 1009.6 |
| 20260904203541 | 28 | 317 | 4.8 | 16.1 | 0.00 | 2.95 | 2.95 | 57 | 1009.6 |
| 20260904203057 | 28 | 300 | 6.4 | 14.5 | 0.00 | 2.95 | 2.95 | 56 | 1009.7 |
| 20260904202541 | 28 | 360 | 8.0 | 14.5 | 0.00 | 2.95 | 2.95 | 58 | 1009.6 |
| 20260904202041 | 28 | 0 | 6.4 | 20.9 | 0.00 | 2.95 | 2.95 | 57 | 1009.7 |
| 20260904201556 | 27 | 317 | 9.7 | 20.9 | 0.00 | 2.95 | 2.95 | 58 | 1009.6 |
| 20260904201040 | 28 | 277 | 11.3 | 20.9 | 0.00 | 2.95 | 2.95 | 57 | 1009.7 |
| 20260904200541 | 28 | 341 | 9.7 | 20.9 | 0.00 | 2.95 | 2.95 | 56 | 1009.7 |
| 20260904200056 | 28 | 351 | 8.0 | 17.7 | 0.00 | 2.95 | 2.95 | 57 | 1009.7 |
| 20260904195541 | 28 | 38 | 4.8 | 25.7 | 0.00 | 2.95 | 2.95 | 57 | 1009.6 |
| 20260904195042 | 27 | 301 | 8.0 | 25.7 | 0.00 | 2.95 | 2.95 | 58 | 1009.7 |
| 20260904194608 | 27 | 338 | 11.3 | 25.7 | 0.00 | 2.95 | 2.95 | 57 | 1009.7 |
| 20260904194042 | 27 | 9 | 9.7 | 24.1 | 0.00 | 2.95 | 2.95 | 58 | 1009.7 |
| 20260904193541 | 27 | 342 | 9.7 | 24.1 | 0.00 | 2.95 | 2.95 | 58 | 1009.8 |
| 20260904193113 | 27 | 332 | 12.9 | 24.1 | 0.00 | 2.95 | 2.95 | 57 | 1010.0 |
| 20260904192540 | 27 | 360 | 11.3 | 22.5 | 0.00 | 2.95 | 2.95 | 57 | 1009.9 |
| 20260904192040 | 27 | 267 | 9.7 | 24.1 | 0.00 | 2.95 | 2.95 | 58 | 1010.0 |
| 20260904191554 | 27 | 304 | 12.9 | 24.1 | 0.00 | 2.95 | 2.95 | 58 | 1010.1 |
| 20260904191042 | 27 | 327 | 8.0 | 17.7 | 0.00 | 2.95 | 2.95 | 58 | 1010.1 |
| 20260904190541 | 27 | 302 | 4.8 | 20.9 | 0.00 | 2.95 | 2.95 | 58 | 1010.3 |
| 20260904190051 | 27 | 15 | 8.0 | 20.9 | 0.00 | 2.95 | 2.95 | 58 | 1010.4 |
| 20260904185541 | 27 | 49 | 6.4 | 19.3 | 0.00 | 2.95 | 2.95 | 59 | 1010.2 |
| 20260904185043 | 27 | 352 | 8.0 | 19.3 | 0.00 | 2.95 | 2.95 | 59 | 1010.1 |